createdAt,value
2022-09-16T00:02:09.279Z,16.92
2022-09-16T00:17:00.425Z,16.93
2022-09-16T00:31:52.171Z,16.80
2022-09-16T00:46:44.217Z,16.72
2022-09-16T01:01:35.106Z,16.58
2022-09-16T01:16:29.078Z,16.49
2022-09-16T01:31:27.128Z,16.45
2022-09-16T01:46:21.168Z,16.39
2022-09-16T02:01:15.247Z,16.29
2022-09-16T02:16:12.595Z,16.26
2022-09-16T02:31:07.532Z,16.24
2022-09-16T02:46:26.893Z,16.25
2022-09-16T03:01:23.870Z,16.27
2022-09-16T03:16:24.632Z,16.29
2022-09-16T03:31:23.100Z,16.35
2022-09-16T03:46:17.445Z,16.34
2022-09-16T04:01:10.344Z,16.35
2022-09-16T04:16:03.365Z,16.34
2022-09-16T04:30:55.009Z,16.34
2022-09-16T04:45:47.404Z,16.30
2022-09-16T05:00:39.752Z,16.20
2022-09-16T05:15:32.378Z,16.09
2022-09-16T05:30:26.170Z,15.93
2022-09-16T05:45:18.099Z,15.76
2022-09-16T06:00:07.130Z,15.58
2022-09-16T06:14:58.732Z,15.47
2022-09-16T06:29:50.740Z,15.53
2022-09-16T06:44:42.927Z,15.61
2022-09-16T06:59:34.929Z,15.60
2022-09-16T07:14:26.895Z,15.59
2022-09-16T07:29:18.577Z,15.72
2022-09-16T07:44:13.574Z,15.84
2022-09-16T07:59:07.404Z,15.91
2022-09-16T08:29:07.755Z,15.89
2022-09-16T08:43:42.444Z,15.97
2022-09-16T08:58:39.105Z,15.96
2022-09-16T09:13:40.746Z,15.90
2022-09-16T09:44:27.465Z,15.95
2022-09-16T09:59:33.264Z,15.99
2022-09-16T10:14:35.590Z,16.12
2022-09-16T10:29:31.423Z,16.23
2022-09-16T10:44:26.294Z,16.74
2022-09-16T10:59:21.024Z,16.92
2022-09-16T11:14:42.788Z,17.12
2022-09-16T11:30:12.682Z,17.27
2022-09-16T11:45:10.042Z,17.86
2022-09-16T12:00:07.069Z,18.23
2022-09-16T12:15:05.994Z,18.63
2022-09-16T12:30:02.999Z,19.01
2022-09-16T12:45:21.817Z,18.42
2022-09-16T13:00:29.276Z,18.29
2022-09-16T13:15:22.609Z,18.16
2022-09-16T13:30:17.833Z,18.60
2022-09-16T13:45:30.825Z,18.89
2022-09-16T14:00:36.354Z,19.47
2022-09-16T14:15:32.070Z,19.52
2022-09-16T14:45:28.375Z,20.30
2022-09-16T15:00:29.760Z,20.36
2022-09-16T15:15:24.789Z,19.47
2022-09-16T15:30:20.834Z,19.19
2022-09-16T15:45:17.856Z,19.00
2022-09-16T16:00:12.256Z,18.73
2022-09-16T16:15:02.799Z,18.24
2022-09-16T16:29:53.548Z,17.81
2022-09-16T16:44:44.479Z,17.54
2022-09-16T16:59:35.747Z,17.42
2022-09-16T17:14:26.593Z,17.25
2022-09-16T17:29:17.185Z,17.06
2022-09-16T17:44:06.582Z,16.57
2022-09-16T19:03:21.229Z,14.98
2022-09-16T19:18:13.507Z,14.85
2022-09-16T19:48:07.943Z,14.71
2022-09-16T20:02:58.984Z,14.61
2022-09-16T20:17:51.167Z,14.54
2022-09-16T20:32:42.484Z,14.47
2022-09-16T20:47:33.582Z,14.31
2022-09-16T21:02:24.474Z,14.31
2022-09-16T21:17:15.859Z,14.22
2022-09-16T21:32:06.515Z,14.24
2022-09-16T21:46:57.620Z,14.25
2022-09-16T22:01:50.903Z,14.03
2022-09-16T22:16:42.265Z,14.10
2022-09-16T22:31:33.826Z,14.14
2022-09-16T22:46:25.246Z,14.19
2022-09-16T23:01:16.274Z,14.15
2022-09-16T23:16:08.228Z,14.10
2022-09-16T23:31:08.799Z,14.09
2022-09-16T23:46:04.154Z,14.02
